Island Lake, IL

10:06 PM CST on December 04, 2016 (GMT -0600)
Larkdale | | Change Station

Elev 791 ft 42.27 °N, 88.16 °W | Updated 48 seconds ago

Overcast
Overcast
30.6 °F
Feels Like 31 °F
N
0.0
Wind Variable Wind from WSW
Gusts 0.0 mph

Today
High -- | Low -- °F
--% Chance of Precip.
Yesterday
High -- | Low -- °F
Precip. -- in
Pressure 29.92 in
Visibility 5.0 miles
Clouds Mostly Cloudy 600 ft
Overcast 1700 ft
Windchill 31 °F
Dew Point 30 °F
Humidity 97%
Rainfall 0.00 in
Snow Depth Not available.
7:05 AM 4:20 PM
Waxing Crescent, 28% visible
METAR KPWK 050352Z AUTO 24004KT 5SM BR BKN006 OVC017 M01/M01 A2990 RMK AO2 CIG 006V009 SLP132 T10061011
Pressure 29.92 in
Visibility 5.0 miles
Clouds Mostly Cloudy 600 ft
Overcast 1700 ft
Windchill 31 °F
Dew Point 30 °F
Humidity 97%
Rainfall 0.00 in
Snow Depth Not available.
7:05 AM 4:20 PM
Waxing Crescent, 28% visible
METAR KPWK 050352Z AUTO 24004KT 5SM BR BKN006 OVC017 M01/M01 A2990 RMK AO2 CIG 006V009 SLP132 T10061011

10-Day Weather Forecast

Almanac

Astronomy

Dec. 04, 2016 Rise Set
Actual Time
Civil Twilight
Nautical Twilight
Astronomical Twilight
Moon
Length of Visible Light
Length of Day
Tomorrow will be .
, % of the Moon is Illuminated

Today's Extremes

State Highs State Lows

Community

WunderPhotos

Upload Photos

1,955,757 photos uploaded!

WunderBlog® & News

Nearby

Air Quality

  Air Quality AQ Index Pollutant
Not available.

Snow Depth

Station Depth Elevation

Earthquake Activity

City Distance Mag. Time & Date
Minimum magnitude displayed is 2.5.

Coastal Water Temperatures

Place Temperature

Stations

Nearby Weather Stations

Station Location Temp. Windchill Dew Point Humidity Wind Precip. Elev Updated Type
                   

Watches & Warnings

There are currently no watches in effect.